Time;durP1;ratioP1;P1;durP2;ratioP2;P2;SDS_P1;SDS_P2;PMS_P1;PMS_P2;Temp;Humidity;BMP_temperature;BMP_pressure;BME280_temperature;BME280_humidity;BME280_pressure;Samples;Min_cycle;Max_cycle;Signal;HPM_P1;HPM_P2
2022/03/05 00:00:37;;;;;;;34.40;11.90;;;;;;;-4.09;74.68;95658.28;4991268;28;20046;-72
2022/03/05 00:03:05;;;;;;;38.40;12.35;;;;;;;-4.10;75.03;95654.09;4990485;28;20145;-72
2022/03/05 00:05:31;;;;;;;35.35;12.98;;;;;;;-4.10;75.34;95645.59;4987343;28;20085;-72
2022/03/05 00:07:57;;;;;;;33.22;11.82;;;;;;;-4.12;74.68;95643.19;4983881;28;20484;-72
2022/03/05 00:10:23;;;;;;;34.05;11.80;;;;;;;-4.14;75.25;95647.69;4991058;28;20045;-72
2022/03/05 00:12:50;;;;;;;36.65;11.30;;;;;;;-4.21;74.86;95650.19;4991109;28;20061;-72
2022/03/05 00:15:17;;;;;;;32.72;11.80;;;;;;;-4.28;75.19;95645.88;4987231;28;20050;-71
2022/03/05 00:17:43;;;;;;;37.75;11.35;;;;;;;-4.32;75.57;95649.78;4991046;28;20046;-72
2022/03/05 00:20:10;;;;;;;35.10;11.75;;;;;;;-4.36;75.08;95651.91;4990124;28;20495;-72
2022/03/05 00:22:36;;;;;;;31.60;11.73;;;;;;;-4.39;75.93;95642.75;4985468;28;20514;-72
2022/03/05 00:25:03;;;;;;;40.65;11.85;;;;;;;-4.46;76.74;95647.00;4983763;28;20409;-72
2022/03/05 00:27:29;;;;;;;39.55;12.88;;;;;;;-4.48;76.31;95654.09;4990570;28;20050;-72
2022/03/05 00:29:55;;;;;;;34.33;12.32;;;;;;;-4.49;76.53;95641.41;4990341;28;20038;-72
2022/03/05 00:32:21;;;;;;;34.47;11.50;;;;;;;-4.53;76.09;95646.06;4989759;28;20038;-71
2022/03/05 00:34:47;;;;;;;38.53;11.32;;;;;;;-4.62;76.97;95650.47;4983949;28;20121;-72
2022/03/05 00:37:13;;;;;;;37.38;11.50;;;;;;;-4.62;76.78;95647.13;4980476;28;20046;-72
2022/03/05 00:39:39;;;;;;;36.67;11.85;;;;;;;-4.73;75.81;95649.09;4990549;28;20046;-72
2022/03/05 00:42:05;;;;;;;32.08;11.77;;;;;;;-4.64;76.56;95649.03;4990279;28;20053;-72
2022/03/05 00:44:31;;;;;;;41.08;12.45;;;;;;;-4.72;77.09;95649.91;4986766;28;20057;-72
2022/03/05 00:46:57;;;;;;;38.78;12.18;;;;;;;-4.75;77.67;95639.97;4982494;28;20046;-71
2022/03/05 00:49:22;;;;;;;36.92;12.27;;;;;;;-4.87;77.84;95647.25;4982810;28;20042;-71
2022/03/05 00:51:49;;;;;;;41.53;12.65;;;;;;;-4.90;78.49;95645.00;4990495;28;20393;-72
2022/03/05 00:54:14;;;;;;;39.40;12.50;;;;;;;-4.88;77.55;95645.66;4981681;28;20035;-71
2022/03/05 00:56:40;;;;;;;45.00;13.65;;;;;;;-4.85;78.33;95642.75;4984993;28;20034;-71
2022/03/05 00:59:06;;;;;;;41.90;11.77;;;;;;;-4.90;78.21;95637.31;4990147;28;20706;-71
2022/03/05 01:01:31;;;;;;;49.95;13.65;;;;;;;-4.92;78.48;95636.69;4990238;28;20989;-71
2022/03/05 01:03:57;;;;;;;33.45;11.15;;;;;;;-5.00;78.37;95640.09;4980133;28;20089;-71
2022/03/05 01:06:22;;;;;;;40.63;12.27;;;;;;;-5.00;78.21;95634.16;4989589;28;20511;-71
2022/03/05 01:08:48;;;;;;;41.85;12.55;;;;;;;-5.21;79.13;95638.13;4988562;28;20532;-71
2022/03/05 01:11:17;;;;;;;40.90;13.25;;;;;;;-5.47;80.95;95628.94;4981821;28;20424;-72
2022/03/05 01:13:43;;;;;;;36.47;11.32;;;;;;;-5.61;82.31;95637.31;4988424;28;20038;-71
2022/03/05 01:16:09;;;;;;;43.97;13.23;;;;;;;-5.61;83.04;95632.97;4982505;28;20053;-71
2022/03/05 01:18:34;;;;;;;37.25;12.07;;;;;;;-5.37;81.76;95636.44;4988272;28;20038;-72
2022/03/05 01:21:00;;;;;;;39.17;12.13;;;;;;;-5.32;81.45;95633.34;4987295;28;20105;-71
2022/03/05 01:23:25;;;;;;;37.90;12.23;;;;;;;-5.31;80.26;95632.41;4989466;28;20515;-72
2022/03/05 01:25:51;;;;;;;38.42;12.43;;;;;;;-5.38;80.85;95631.47;4976374;28;20054;-71
2022/03/05 01:28:17;;;;;;;40.53;12.80;;;;;;;-5.31;81.69;95633.19;4988661;28;20456;-71
2022/03/05 01:30:42;;;;;;;38.47;12.43;;;;;;;-5.35;81.36;95631.91;4990360;28;20666;-72
2022/03/05 01:33:08;;;;;;;36.50;11.77;;;;;;;-5.32;81.64;95633.34;4987292;28;20076;-72
2022/03/05 01:35:34;;;;;;;44.13;11.40;;;;;;;-5.45;81.47;95632.13;4989656;28;20072;-72
2022/03/05 01:37:59;;;;;;;41.67;13.40;;;;;;;-5.50;82.05;95636.97;4989387;28;20042;-71
2022/03/05 01:40:25;;;;;;;42.28;12.68;;;;;;;-5.55;82.46;95630.72;4989496;28;20832;-71
2022/03/05 01:42:51;;;;;;;40.65;12.38;;;;;;;-5.51;82.89;95632.78;4974051;28;20049;-71
2022/03/05 01:45:16;;;;;;;38.88;12.35;;;;;;;-5.52;82.21;95636.31;4985631;28;20129;-72
2022/03/05 01:47:42;;;;;;;39.50;11.52;;;;;;;-5.52;81.56;95631.19;4986714;28;20420;-72
2022/03/05 01:50:09;;;;;;;44.83;12.40;;;;;;;-5.51;82.15;95632.78;4987457;28;20412;-71
2022/03/05 01:52:35;;;;;;;43.08;12.30;;;;;;;-5.51;81.32;95630.22;4989307;28;20078;-71
2022/03/05 01:55:01;;;;;;;43.08;12.75;;;;;;;-5.46;81.63;95635.66;4987204;28;20054;-72
2022/03/05 01:57:26;;;;;;;39.80;12.68;;;;;;;-5.40;81.85;95635.00;4988946;28;20566;-71
2022/03/05 01:59:52;;;;;;;46.42;13.20;;;;;;;-5.59;81.22;95635.38;4988979;28;20065;-72
2022/03/05 02:02:19;;;;;;;42.90;13.85;;;;;;;-5.77;83.55;95628.69;4978251;28;20689;-71
2022/03/05 02:04:44;;;;;;;42.75;13.32;;;;;;;-5.81;84.21;95637.66;4979874;28;20039;-71
2022/03/05 02:07:10;;;;;;;46.25;13.40;;;;;;;-5.68;83.48;95631.25;4988594;28;20543;-71
2022/03/05 02:09:36;;;;;;;44.72;13.27;;;;;;;-5.66;83.32;95631.88;4989092;28;20050;-71
2022/03/05 02:12:02;;;;;;;48.13;13.48;;;;;;;-5.67;83.91;95627.72;4986740;28;20047;-71
2022/03/05 02:14:29;;;;;;;45.38;12.70;;;;;;;-5.69;83.88;95629.63;4984026;28;20706;-72
2022/03/05 02:16:55;;;;;;;43.42;13.98;;;;;;;-5.77;83.16;95623.56;4983103;28;20046;-71
2022/03/05 02:19:21;;;;;;;43.28;13.70;;;;;;;-5.77;83.86;95626.13;4988136;28;20455;-72
2022/03/05 02:21:47;;;;;;;39.88;12.95;;;;;;;-5.79;83.29;95625.50;4984794;28;20042;-71
2022/03/05 02:24:31;;;;;;;42.63;13.07;;;;;;;-5.76;83.70;95625.16;4985883;28;20038;-72
2022/03/05 02:27:00;;;;;;;42.47;13.75;;;;;;;-5.85;84.06;95630.47;4975124;28;20046;-71
2022/03/05 02:29:25;;;;;;;40.70;13.77;;;;;;;-5.95;86.19;95633.22;4988932;28;20042;-72
2022/03/05 02:31:53;;;;;;;41.35;13.07;;;;;;;-5.86;84.19;95634.81;4988122;28;20047;-71
2022/03/05 02:34:20;;;;;;;42.72;13.60;;;;;;;-5.86;84.02;95624.56;4985726;28;20412;-71
2022/03/05 02:36:45;;;;;;;52.28;14.73;;;;;;;-5.84;84.50;95627.75;4988840;28;20062;-71
2022/03/05 02:39:11;;;;;;;47.40;14.25;;;;;;;-5.89;84.02;95624.88;4989041;28;20088;-72
2022/03/05 02:41:37;;;;;;;45.88;13.68;;;;;;;-5.80;83.94;95603.38;4987318;28;20050;-71
2022/03/05 02:44:03;;;;;;;42.72;14.90;;;;;;;-5.83;84.13;95608.84;4989098;28;20050;-72
2022/03/05 02:46:29;;;;;;;49.75;14.32;;;;;;;-5.91;84.07;95607.09;4989268;28;20053;-72
2022/03/05 02:48:56;;;;;;;47.65;13.07;;;;;;;-5.91;84.30;95599.41;4988901;28;20126;-71
2022/03/05 02:51:22;;;;;;;39.47;13.85;;;;;;;-5.90;84.39;95597.66;4986106;28;20034;-72
2022/03/05 02:53:48;;;;;;;49.40;13.82;;;;;;;-5.99;84.68;95603.78;4988276;28;20050;-71
2022/03/05 02:56:13;;;;;;;39.95;13.23;;;;;;;-6.01;84.26;95603.16;4979582;28;20109;-71
2022/03/05 02:58:39;;;;;;;42.22;13.02;;;;;;;-6.10;83.58;95608.28;4983037;28;20113;-71
2022/03/05 03:01:05;;;;;;;42.97;14.02;;;;;;;-6.07;84.04;95596.13;4972452;28;20043;-72
2022/03/05 03:03:30;;;;;;;41.05;11.75;;;;;;;-6.13;84.83;95598.38;4983974;28;20560;-72
2022/03/05 03:05:56;;;;;;;44.60;12.93;;;;;;;-6.11;84.20;95595.63;4988700;28;20105;-71
2022/03/05 03:08:22;;;;;;;48.28;12.98;;;;;;;-6.19;84.73;95599.03;4989165;28;20050;-71
2022/03/05 03:10:47;;;;;;;43.95;14.63;;;;;;;-6.16;84.29;95603.81;4988792;28;20045;-72
2022/03/05 03:13:13;;;;;;;45.45;13.18;;;;;;;-6.28;83.54;95600.81;4983719;28;20073;-72
2022/03/05 03:15:39;;;;;;;47.63;13.85;;;;;;;-6.32;84.66;95598.69;4988705;28;20396;-72
2022/03/05 03:18:05;;;;;;;49.97;14.20;;;;;;;-6.29;85.09;95593.28;4988218;28;20054;-71
2022/03/05 03:20:31;;;;;;;40.60;12.85;;;;;;;-6.33;85.13;95592.00;4988665;28;20046;-71
2022/03/05 03:22:57;;;;;;;45.10;13.77;;;;;;;-6.47;84.48;95596.78;4986349;28;20037;-71
2022/03/05 03:25:23;;;;;;;40.92;13.35;;;;;;;-6.52;83.76;95591.38;4981045;28;20054;-71
2022/03/05 03:27:50;;;;;;;44.83;14.05;;;;;;;-6.56;84.71;95592.66;4991741;28;20073;-71
2022/03/05 03:30:16;;;;;;;60.67;15.13;;;;;;;-6.51;85.05;95589.59;4992186;28;20043;-72
2022/03/05 03:32:43;;;;;;;45.75;14.82;;;;;;;-6.58;84.71;95586.88;4987714;28;20051;-71
2022/03/05 03:35:10;;;;;;;44.70;13.80;;;;;;;-6.66;85.64;95581.78;4990325;28;20065;-72
2022/03/05 03:37:36;;;;;;;47.72;14.68;;;;;;;-6.60;86.64;95581.13;4985883;28;20677;-71
2022/03/05 03:40:06;;;;;;;53.75;14.00;;;;;;;-6.59;86.18;95582.72;4990672;28;20050;-72
2022/03/05 03:42:32;;;;;;;45.03;14.40;;;;;;;-6.62;86.56;95588.16;4990538;28;20109;-72
2022/03/05 03:44:58;;;;;;;42.92;13.30;;;;;;;-6.57;85.64;95585.91;4991825;28;20477;-72
2022/03/05 03:47:24;;;;;;;47.60;13.48;;;;;;;-6.61;85.67;95589.75;4991953;28;20070;-71
2022/03/05 03:49:50;;;;;;;48.40;12.73;;;;;;;-6.65;85.98;95583.34;4982300;28;20661;-71
2022/03/05 03:52:16;;;;;;;46.67;14.23;;;;;;;-6.73;86.15;95585.94;4983552;28;20039;-72
2022/03/05 03:54:44;;;;;;;44.00;13.07;;;;;;;-6.79;86.43;95588.16;4981502;28;20046;-71
2022/03/05 03:57:09;;;;;;;47.53;14.13;;;;;;;-6.79;86.26;95592.47;4986763;28;20420;-71
2022/03/05 03:59:35;;;;;;;40.90;13.02;;;;;;;-6.82;86.65;95603.81;4985819;28;20046;-72
2022/03/05 04:02:04;;;;;;;40.60;13.10;;;;;;;-6.90;85.61;95601.25;4991514;28;20085;-72
2022/03/05 04:04:30;;;;;;;39.97;11.98;;;;;;;-6.83;86.23;95602.22;4988848;28;20145;-72
2022/03/05 04:09:40;;;;;;;43.17;12.85;;;;;;;-6.80;86.51;95601.91;4991135;28;20070;-72
2022/03/05 04:12:06;;;;;;;47.00;14.35;;;;;;;-6.84;86.06;95608.31;4989549;28;20046;-72
2022/03/05 04:14:31;;;;;;;46.67;13.75;;;;;;;-6.87;86.59;95597.59;4985603;28;20046;-71
2022/03/05 04:16:57;;;;;;;51.42;14.35;;;;;;;-6.93;86.16;95604.13;4983134;28;20049;-72
2022/03/05 04:19:23;;;;;;;40.53;13.20;;;;;;;-6.97;87.75;95605.41;4986721;28;20050;-72
2022/03/05 04:21:49;;;;;;;42.88;13.02;;;;;;;-6.98;88.26;95608.94;4980588;28;20528;-72
2022/03/05 04:24:14;;;;;;;41.80;14.35;;;;;;;-6.94;88.00;95607.63;4977870;28;20046;-71
2022/03/05 04:26:40;;;;;;;43.63;14.23;;;;;;;-7.01;87.91;95616.91;4978858;28;20563;-72
2022/03/05 04:29:06;;;;;;;44.38;14.85;;;;;;;-7.03;87.72;95621.38;4990872;28;20117;-71
2022/03/05 04:31:31;;;;;;;50.20;15.35;;;;;;;-6.99;87.62;95622.69;4990879;28;20043;-71
2022/03/05 04:33:57;;;;;;;52.25;14.75;;;;;;;-7.06;87.37;95608.91;4988253;28;20496;-72
2022/03/05 04:36:22;;;;;;;43.35;14.73;;;;;;;-7.06;87.82;95614.03;4982925;28;20038;-71
2022/03/05 04:38:48;;;;;;;40.95;13.70;;;;;;;-7.08;88.53;95623.59;4990061;28;20065;-72
2022/03/05 04:41:15;;;;;;;42.03;13.40;;;;;;;-7.06;87.47;95622.50;4989868;28;20042;-70
2022/03/05 04:43:41;;;;;;;47.45;13.95;;;;;;;-7.02;87.93;95617.88;4988780;28;20575;-70
2022/03/05 04:46:06;;;;;;;58.72;15.45;;;;;;;-7.06;86.82;95621.69;4991180;28;20047;-70
2022/03/05 04:48:32;;;;;;;46.80;12.57;;;;;;;-7.02;87.29;95620.44;4988745;28;20046;-70
2022/03/05 04:50:58;;;;;;;38.53;12.63;;;;;;;-7.03;87.29;95616.28;4975117;28;20045;-70
2022/03/05 04:53:23;;;;;;;50.20;14.20;;;;;;;-7.00;87.37;95626.97;4990088;28;20492;-71
2022/03/05 04:55:50;;;;;;;40.90;14.93;;;;;;;-6.99;87.46;95626.03;4977638;28;20038;-70
2022/03/05 04:58:17;;;;;;;45.25;13.73;;;;;;;-6.93;87.43;95627.16;4987032;28;20039;-70
2022/03/05 05:00:42;;;;;;;49.40;14.07;;;;;;;-6.99;87.75;95622.69;4984990;28;20058;-70
2022/03/05 05:03:08;;;;;;;53.35;14.35;;;;;;;-7.05;87.98;95625.84;4988854;28;20042;-70
2022/03/05 05:05:34;;;;;;;46.33;14.40;;;;;;;-7.09;88.47;95622.03;4990691;28;20042;-70
2022/03/05 05:07:59;;;;;;;49.67;13.98;;;;;;;-7.08;88.20;95623.59;4988879;28;20038;-70
2022/03/05 05:10:25;;;;;;;42.17;14.02;;;;;;;-7.02;87.39;95628.13;4986570;28;20492;-70
2022/03/05 05:12:51;;;;;;;44.58;14.63;;;;;;;-7.07;87.81;95630.31;4987057;28;20041;-70
2022/03/05 05:15:16;;;;;;;51.00;15.25;;;;;;;-7.14;87.46;95625.84;4989945;28;20500;-70
2022/03/05 05:17:42;;;;;;;39.00;13.65;;;;;;;-7.11;87.33;95634.16;4987432;28;20043;-71
2022/03/05 05:20:09;;;;;;;41.58;13.57;;;;;;;-7.11;88.57;95629.03;4987858;28;20511;-70
2022/03/05 05:22:35;;;;;;;46.78;14.50;;;;;;;-7.09;87.97;95632.25;4989342;28;20045;-69
2022/03/05 05:25:00;;;;;;;48.42;15.82;;;;;;;-7.13;87.96;95627.41;4983284;28;20528;-71
2022/03/05 05:27:26;;;;;;;46.92;14.23;;;;;;;-7.23;87.94;95637.00;4989898;28;20095;-70
2022/03/05 05:29:52;;;;;;;51.28;14.88;;;;;;;-7.22;87.93;95633.47;4989892;28;20470;-70
2022/03/05 05:32:18;;;;;;;51.15;13.77;;;;;;;-7.20;87.52;95626.44;4989634;28;20053;-70
2022/03/05 05:34:44;;;;;;;45.10;13.88;;;;;;;-7.19;87.96;95628.06;4980998;28;20038;-70
2022/03/05 05:37:10;;;;;;;44.28;14.75;;;;;;;-7.21;89.12;95635.09;4985845;28;20104;-70
2022/03/05 05:39:36;;;;;;;52.67;15.20;;;;;;;-7.08;88.65;95638.94;4974484;28;20557;-70
2022/03/05 05:42:02;;;;;;;42.97;14.70;;;;;;;-7.11;88.03;95634.16;4983216;28;20054;-70
2022/03/05 05:44:28;;;;;;;48.33;15.30;;;;;;;-7.23;88.90;95629.31;4989534;28;20496;-70
2022/03/05 05:46:53;;;;;;;49.03;13.85;;;;;;;-7.23;88.46;95637.00;4988633;28;20101;-70
2022/03/05 05:49:20;;;;;;;42.13;14.00;;;;;;;-7.26;88.54;95642.41;4989732;28;20401;-70
2022/03/05 05:51:45;;;;;;;60.05;15.70;;;;;;;-7.33;88.69;95642.22;4982761;28;20041;-71
2022/03/05 05:54:11;;;;;;;51.05;15.10;;;;;;;-7.35;89.23;95639.03;4984329;28;20046;-69
2022/03/05 05:56:36;;;;;;;50.45;15.30;;;;;;;-7.30;89.46;95643.69;4988249;28;20510;-70
2022/03/05 05:59:04;;;;;;;49.90;15.00;;;;;;;-7.22;89.08;95643.72;4989711;28;20167;-70
2022/03/05 06:01:29;;;;;;;50.35;14.50;;;;;;;-7.23;88.32;95647.22;4981115;28;20038;-70
2022/03/05 06:03:55;;;;;;;52.45;15.68;;;;;;;-7.29;89.39;95647.84;4976843;28;20042;-70
2022/03/05 06:06:22;;;;;;;53.15;15.38;;;;;;;-7.26;88.86;95651.84;4989693;28;20057;-70
2022/03/05 06:08:48;;;;;;;46.92;14.98;;;;;;;-7.24;88.79;95643.09;4987956;28;20562;-70
2022/03/05 06:11:14;;;;;;;47.95;14.93;;;;;;;-7.30;88.92;95643.69;4980480;28;20046;-70
2022/03/05 06:13:39;;;;;;;45.92;13.60;;;;;;;-7.29;89.27;95647.84;4981063;28;20034;-70
2022/03/05 06:16:06;;;;;;;50.13;15.35;;;;;;;-7.30;88.67;95641.13;4978177;28;20121;-70
2022/03/05 06:18:31;;;;;;;50.55;15.05;;;;;;;-7.16;87.87;95643.09;4975395;28;20038;-70
2022/03/05 06:20:57;;;;;;;52.05;16.58;;;;;;;-7.14;88.64;95651.41;4986366;28;20066;-70
2022/03/05 06:23:23;;;;;;;43.33;15.00;;;;;;;-7.11;87.97;95654.63;4985288;28;20050;-69
2022/03/05 06:25:50;;;;;;;54.53;16.05;;;;;;;-7.20;88.09;95657.13;4986082;28;20130;-70
2022/03/05 06:28:16;;;;;;;49.05;14.60;;;;;;;-7.21;88.15;95660.66;4988710;28;20073;-68
2022/03/05 06:30:42;;;;;;;44.75;13.40;;;;;;;-7.19;88.57;95658.75;4989188;28;20046;-68
2022/03/05 06:33:07;;;;;;;47.35;15.07;;;;;;;-7.20;88.57;95657.13;4985564;28;20046;-68
2022/03/05 06:35:33;;;;;;;48.40;14.65;;;;;;;-7.07;90.28;95664.38;4976626;28;20066;-69
2022/03/05 06:37:59;;;;;;;47.42;14.63;;;;;;;-6.98;89.03;95665.22;4975569;28;20038;-68
2022/03/05 06:40:24;;;;;;;53.13;15.32;;;;;;;-6.95;90.03;95664.91;4978368;28;20042;-68
2022/03/05 06:42:50;;;;;;;52.10;15.93;;;;;;;-6.89;89.51;95671.94;4980858;28;20039;-68
2022/03/05 06:45:16;;;;;;;53.50;14.50;;;;;;;-6.79;89.82;95675.16;4980412;28;20038;-69
2022/03/05 06:47:42;;;;;;;46.65;14.85;;;;;;;-6.82;89.36;95679.81;4989187;28;20500;-69
2022/03/05 06:50:10;;;;;;;50.92;16.60;;;;;;;-6.75;90.04;95679.97;4988471;28;20408;-69
2022/03/05 06:52:36;;;;;;;48.83;15.15;;;;;;;-6.63;90.47;95678.72;4985755;28;20100;-68
2022/03/05 06:55:03;;;;;;;62.33;18.23;;;;;;;-6.53;91.45;95671.69;4981493;28;20504;-69
2022/03/05 06:57:29;;;;;;;57.42;18.40;;;;;;;-6.38;92.50;95676.19;4987720;28;20043;-69
2022/03/05 06:59:55;;;;;;;60.30;18.33;;;;;;;-6.28;92.42;95681.94;4992246;28;20459;-69
2022/03/05 07:02:21;;;;;;;59.08;18.38;;;;;;;-6.19;93.46;95681.00;4989450;28;20046;-74
2022/03/05 07:04:46;;;;;;;66.30;19.55;;;;;;;-6.00;93.17;95690.13;4989017;28;20050;-70
2022/03/05 07:07:12;;;;;;;62.78;20.17;;;;;;;-5.77;94.11;95679.97;4992904;28;20050;-71
2022/03/05 07:09:38;;;;;;;79.28;21.98;;;;;;;-5.63;93.68;95680.25;4993512;28;20052;-70
2022/03/05 07:12:04;;;;;;;63.08;20.50;;;;;;;-5.58;93.89;95685.69;4990242;28;20035;-68
2022/03/05 07:14:29;;;;;;;69.57;21.73;;;;;;;-5.44;93.17;95684.22;4984781;28;20045;-69
2022/03/05 07:16:55;;;;;;;67.50;20.20;;;;;;;-5.37;93.32;95679.22;4987973;28;20046;-69
2022/03/05 07:19:20;;;;;;;77.05;20.08;;;;;;;-5.31;92.85;95683.72;4991258;28;20492;-69
2022/03/05 07:21:46;;;;;;;79.07;22.33;;;;;;;-5.06;93.03;95687.78;4981502;28;20054;-69
2022/03/05 07:24:12;;;;;;;65.90;21.58;;;;;;;-4.91;92.92;95689.66;4990140;28;20472;-68
2022/03/05 07:26:38;;;;;;;73.22;22.35;;;;;;;-4.85;92.70;95688.97;4987258;28;20042;-69
2022/03/05 07:29:03;;;;;;;71.55;21.15;;;;;;;-4.78;92.53;95684.75;4988943;28;20496;-68
2022/03/05 07:31:29;;;;;;;76.55;23.13;;;;;;;-4.67;92.31;95685.34;4984100;28;20046;-68
2022/03/05 07:33:54;;;;;;;69.40;21.45;;;;;;;-4.49;92.19;95687.66;4990009;28;20488;-69
2022/03/05 07:36:20;;;;;;;68.47;22.15;;;;;;;-4.48;91.69;95684.91;4992822;28;20554;-70
2022/03/05 07:38:46;;;;;;;71.45;21.45;;;;;;;-4.43;91.92;95682.59;4993248;28;20078;-71
2022/03/05 07:41:13;;;;;;;71.13;22.30;;;;;;;-4.37;91.30;95681.94;4992542;28;20050;-70
2022/03/05 07:43:39;;;;;;;78.53;23.10;;;;;;;-4.30;91.36;95687.19;4980401;28;20050;-71
2022/03/05 07:46:05;;;;;;;72.22;22.40;;;;;;;-3.74;90.36;95681.75;4993141;28;20047;-68
2022/03/05 07:48:31;;;;;;;64.00;22.75;;;;;;;-3.79;89.38;95684.06;4990556;28;20115;-68
2022/03/05 07:50:59;;;;;;;69.88;22.02;;;;;;;-3.79;89.22;95676.34;4980181;28;20109;-68
2022/03/05 07:53:27;;;;;;;64.65;21.83;;;;;;;-3.84;89.66;95678.63;4986880;28;20097;-69
2022/03/05 07:55:53;;;;;;;69.75;22.02;;;;;;;-3.60;88.73;95676.81;4988689;28;20042;-70
2022/03/05 07:58:18;;;;;;;73.28;22.40;;;;;;;-3.64;89.32;95678.91;4992620;28;20121;-70
2022/03/05 08:00:44;;;;;;;75.05;24.20;;;;;;;-3.59;89.38;95688.66;4992367;28;20074;-72
2022/03/05 08:03:10;;;;;;;64.93;22.20;;;;;;;-3.59;89.20;95678.38;4991969;28;20401;-72
2022/03/05 08:05:36;;;;;;;78.32;24.00;;;;;;;-3.47;89.42;95682.13;4983323;28;20053;-72
2022/03/05 08:08:02;;;;;;;76.65;23.70;;;;;;;-3.44;89.03;95680.97;4991699;28;20411;-72
2022/03/05 08:10:27;;;;;;;65.32;20.80;;;;;;;-3.12;89.29;95679.81;4991191;28;20488;-72
2022/03/05 08:12:53;;;;;;;68.25;23.70;;;;;;;-2.97;87.63;95678.03;4989081;28;20038;-72
2022/03/05 08:15:19;;;;;;;71.43;24.02;;;;;;;-2.91;87.28;95680.88;4983723;28;20042;-72
2022/03/05 08:17:53;;;;;;;79.28;24.35;;;;;;;-2.84;87.49;95681.75;4991769;28;20042;-72
2022/03/05 08:20:19;;;;;;;80.10;24.15;;;;;;;-2.81;87.08;95681.38;4990108;28;20046;-71
2022/03/05 08:22:45;;;;;;;69.82;23.23;;;;;;;-2.83;86.84;95685.88;4983385;28;20043;-72
2022/03/05 08:25:11;;;;;;;76.82;23.55;;;;;;;-2.77;86.61;95687.75;4982748;28;20047;-73
2022/03/05 08:27:36;;;;;;;72.97;22.77;;;;;;;-2.72;86.86;95679.50;4985839;28;20096;-71
2022/03/05 08:30:04;;;;;;;66.07;22.23;;;;;;;-2.69;86.84;95687.63;4991700;28;20050;-72
2022/03/05 08:32:29;;;;;;;71.07;22.83;;;;;;;-2.07;85.61;95688.03;4979990;28;20046;-70
2022/03/05 08:34:55;;;;;;;67.85;23.27;;;;;;;-2.12;84.87;95690.38;4991067;28;20046;-71
2022/03/05 08:37:21;;;;;;;69.60;23.13;;;;;;;-2.15;84.92;95685.59;4981044;28;20049;-70
2022/03/05 08:39:46;;;;;;;73.57;22.95;;;;;;;-2.13;84.71;95689.56;4991810;28;20050;-70
2022/03/05 08:42:12;;;;;;;70.70;26.15;;;;;;;-2.07;84.20;95688.03;4988265;28;20054;-71
2022/03/05 08:44:37;;;;;;;68.13;23.85;;;;;;;-2.01;84.23;95671.84;4991966;28;20049;-72
2022/03/05 08:47:03;;;;;;;68.75;23.38;;;;;;;-1.64;82.76;95671.69;4990712;28;20117;-72
2022/03/05 08:49:29;;;;;;;65.88;22.35;;;;;;;-1.48;82.24;95675.78;4989811;28;20060;-71
2022/03/05 08:51:54;;;;;;;68.18;22.88;;;;;;;-1.30;80.83;95673.50;4991678;28;20089;-72
2022/03/05 08:54:20;;;;;;;66.47;21.70;;;;;;;-1.20;80.79;95662.03;4984438;28;20035;-72
2022/03/05 08:56:47;;;;;;;61.95;22.58;;;;;;;-1.28;81.52;95670.72;4988495;28;20122;-71
2022/03/05 08:59:12;;;;;;;60.97;21.55;;;;;;;-1.11;80.15;95666.06;4987340;28;20080;-72
2022/03/05 09:01:38;;;;;;;59.92;21.27;;;;;;;-1.16;78.36;95676.97;4983543;28;20038;-72
2022/03/05 09:04:05;;;;;;;63.08;21.38;;;;;;;-0.82;77.67;95674.50;4988621;28;20554;-72
2022/03/05 09:06:30;;;;;;;65.97;22.83;;;;;;;-0.75;77.42;95677.91;4991654;28;20034;-72
2022/03/05 09:08:57;;;;;;;64.15;21.80;;;;;;;-0.52;77.52;95675.00;4991329;28;20096;-75
2022/03/05 09:11:23;;;;;;;57.85;21.50;;;;;;;-0.45;74.55;95664.69;4990472;28;20108;-69
2022/03/05 09:13:49;;;;;;;61.83;20.30;;;;;;;-0.35;75.40;95670.25;4986751;28;20034;-70
2022/03/05 09:16:15;;;;;;;47.88;18.10;;;;;;;-0.33;71.76;95668.31;4985323;28;20050;-70
2022/03/05 09:18:41;;;;;;;56.88;21.10;;;;;;;-0.18;72.30;95665.53;4989541;28;20039;-72
2022/03/05 09:21:07;;;;;;;53.28;17.85;;;;;;;-0.20;70.79;95657.97;4982360;28;20416;-72
2022/03/05 09:23:33;;;;;;;56.95;18.50;;;;;;;0.11;70.83;95653.97;4978442;28;20047;-71
2022/03/05 09:25:59;;;;;;;52.55;17.13;;;;;;;0.14;68.70;95658.78;4981618;28;20116;-71
2022/03/05 09:28:24;;;;;;;40.65;14.40;;;;;;;0.52;68.67;95665.13;4988962;28;20677;-72
2022/03/05 09:30:50;;;;;;;42.13;14.40;;;;;;;0.63;68.87;95655.91;4991406;28;20041;-77
2022/03/05 09:33:15;;;;;;;56.45;19.05;;;;;;;0.51;66.96;95659.13;4985242;28;20047;-74
2022/03/05 09:35:43;;;;;;;44.95;17.55;;;;;;;0.53;66.42;95656.31;4992177;28;20128;-72
2022/03/05 09:38:09;;;;;;;47.17;16.40;;;;;;;0.85;64.99;95654.66;4989764;28;20038;-71
2022/03/05 09:40:34;;;;;;;47.60;17.17;;;;;;;0.90;65.11;95655.84;4986117;28;20531;-72
2022/03/05 09:43:01;;;;;;;42.90;15.93;;;;;;;1.33;66.11;95639.72;4984224;28;20039;-71
2022/03/05 09:45:27;;;;;;;42.92;15.20;;;;;;;1.23;63.99;95644.56;4989028;28;20052;-70
2022/03/05 09:47:56;;;;;;;40.85;14.02;;;;;;;1.43;63.60;95650.44;4973400;28;20066;-68
2022/03/05 09:50:24;;;;;;;44.75;16.60;;;;;;;1.51;63.11;95645.00;4979276;28;20567;-71
2022/03/05 09:52:50;;;;;;;42.17;14.98;;;;;;;1.71;61.29;95652.66;4990992;28;20401;-71
2022/03/05 09:55:15;;;;;;;41.35;15.82;;;;;;;1.86;60.93;95643.78;4980368;28;20051;-71
2022/03/05 09:57:42;;;;;;;42.60;15.93;;;;;;;2.15;60.17;95646.78;4981332;28;20058;-70
2022/03/05 10:00:08;;;;;;;33.33;13.52;;;;;;;2.30;56.10;95649.03;4989751;28;20050;-70
2022/03/05 10:02:33;;;;;;;35.78;14.52;;;;;;;2.28;56.99;95651.84;4988609;28;20056;-70
2022/03/05 10:05:19;;;;;;;38.67;13.85;;;;;;;2.28;55.38;95640.66;4980768;28;20039;-75
2022/03/05 10:08:07;;;;;;;41.22;15.10;;;;;;;2.91;55.32;95644.84;4974968;28;20069;-74
2022/03/05 10:10:46;;;;;;;33.75;14.48;;;;;;;3.07;54.55;95638.25;4974346;28;20116;-73
2022/03/05 10:13:19;;;;;;;35.03;14.57;;;;;;;3.11;54.10;95639.41;4978203;28;20050;-71
2022/03/05 10:15:45;;;;;;;35.78;14.32;;;;;;;2.97;53.42;95638.75;4989204;28;20038;-72
2022/03/05 10:18:11;;;;;;;35.38;13.27;;;;;;;2.39;53.50;95647.75;4988344;28;20046;-71
2022/03/05 10:20:44;;;;;;;30.48;11.60;;;;;;;2.34;53.05;95645.00;4986671;28;20049;-72
2022/03/05 10:23:11;;;;;;;33.10;13.00;;;;;;;3.69;49.71;95639.88;4989676;28;20084;-69
2022/03/05 10:25:38;;;;;;;30.30;12.65;;;;;;;2.82;51.63;95641.75;4987853;28;20046;-71
2022/03/05 10:28:25;;;;;;;26.85;10.82;;;;;;;4.71;46.51;95640.63;4986991;28;20046;-71
2022/03/05 10:31:02;;;;;;;28.55;11.25;;;;;;;4.13;47.80;95640.41;4986378;28;20049;-73
2022/03/05 10:33:29;;;;;;;24.83;11.73;;;;;;;5.86;45.04;95645.94;4989004;28;20034;-71
2022/03/05 10:35:57;;;;;;;26.67;12.30;;;;;;;5.74;44.84;95635.56;4993050;28;20738;-71
2022/03/05 10:38:25;;;;;;;21.50;9.38;;;;;;;4.82;45.38;95632.78;4991693;28;20047;-71
2022/03/05 10:40:55;;;;;;;26.33;11.20;;;;;;;3.33;46.99;95636.34;4985630;28;20042;-71
2022/03/05 10:43:23;;;;;;;22.88;10.73;;;;;;;3.28;47.06;95632.59;4974078;28;20054;-70
2022/03/05 10:45:58;;;;;;;21.45;9.77;;;;;;;3.05;47.32;95640.28;4980175;28;20035;-71
2022/03/05 10:48:32;;;;;;;17.30;7.45;;;;;;;5.50;41.31;95632.25;4991855;28;20053;-76
2022/03/05 10:51:09;;;;;;;22.70;9.25;;;;;;;4.92;42.79;95621.78;4988818;28;20038;-71
2022/03/05 10:53:39;;;;;;;22.58;9.32;;;;;;;5.80;42.76;95626.00;4993608;28;20480;-71
2022/03/05 10:56:25;;;;;;;22.27;9.85;;;;;;;4.88;42.15;95625.88;4986465;28;20093;-71
2022/03/05 10:59:05;;;;;;;22.98;10.25;;;;;;;3.16;46.64;95636.97;4990144;28;20608;-74
2022/03/05 11:01:31;;;;;;;22.50;9.52;;;;;;;6.05;42.12;95623.81;4992451;28;20070;-73
2022/03/05 11:03:59;;;;;;;23.08;9.77;;;;;;;4.89;43.51;95632.69;4991581;28;20046;-70
2022/03/05 11:06:25;;;;;;;20.85;9.68;;;;;;;3.81;45.38;95631.06;4989738;28;20054;-71
2022/03/05 11:08:51;;;;;;;24.17;9.77;;;;;;;3.22;46.19;95635.25;4984849;28;20047;-70
2022/03/05 11:11:19;;;;;;;25.75;10.50;;;;;;;4.12;43.26;95628.41;4991960;28;20050;-70
2022/03/05 11:13:45;;;;;;;20.25;9.15;;;;;;;4.18;45.01;95631.91;4981837;28;20058;-70
2022/03/05 11:16:12;;;;;;;23.33;10.18;;;;;;;3.33;47.45;95631.16;4991525;28;20038;-72
2022/03/05 11:18:39;;;;;;;22.85;9.68;;;;;;;3.51;45.57;95620.69;4987807;28;20042;-71